Time;durP1;ratioP1;P1;durP2;ratioP2;P2;SDS_P1;SDS_P2;PMS_P1;PMS_P2;Temp;Humidity;BMP_temperature;BMP_pressure;BME280_temperature;BME280_humidity;BME280_pressure;Samples;Min_cycle;Max_cycle;Signal;HPM_P1;HPM_P2
2022/04/19 04:31:17;;;;;;;;;3.00;3.00;;;;;11.79;56.00;101086.97;1438643;25;46416;-73
2022/04/19 04:33:42;;;;;;;;;4.00;2.00;;;;;11.73;56.40;101089.00;5096867;27;45467;-74
2022/04/19 04:36:09;;;;;;;;;6.50;4.00;;;;;11.62;56.60;101087.72;5097055;27;45392;-73
2022/04/19 04:38:34;;;;;;;;;4.00;4.00;;;;;11.65;56.66;101093.81;5096968;27;45383;-73
2022/04/19 04:40:59;;;;;;;;;4.00;4.00;;;;;11.57;56.52;101087.06;5097182;27;45310;-74
2022/04/19 04:43:25;;;;;;;;;10.50;3.75;;;;;11.63;57.16;101101.09;5096874;27;45408;-74
2022/04/19 04:49:35;;;;;;;;;5.25;4.00;;;;;11.52;56.72;101076.50;5096640;27;45369;-74
2022/04/19 04:51:19;;;;;;;;;3.50;2.50;;;;;11.63;56.97;101087.66;5096913;27;45231;-74
2022/04/19 04:53:45;;;;;;;;;4.00;2.25;;;;;11.71;56.55;101098.03;5096783;27;45328;-74
2022/04/19 04:56:10;;;;;;;;;2.75;2.75;;;;;11.73;57.25;101104.22;5095242;27;45834;-73
2022/04/19 04:58:37;;;;;;;;;2.25;2.25;;;;;11.66;57.46;101114.34;5096827;27;45461;-73
2022/04/19 05:01:02;;;;;;;;;2.50;2.50;;;;;11.66;57.30;101100.91;5096247;27;45360;-71
2022/04/19 05:03:28;;;;;;;;;3.00;3.00;;;;;11.72;56.89;101108.72;5096725;27;45650;-74
2022/04/19 05:05:53;;;;;;;;;2.75;1.00;;;;;11.69;57.49;101111.53;5096534;27;45392;-71
2022/04/19 05:08:18;;;;;;;;;3.25;3.25;;;;;11.59;57.45;101088.72;5096605;27;46133;-73
2022/04/19 05:10:44;;;;;;;;;3.00;3.00;;;;;11.71;57.19;101103.41;5098427;27;45226;-73
2022/04/19 05:13:09;;;;;;;;;5.00;3.25;;;;;11.79;57.03;101112.03;5098022;27;45498;-72
2022/04/19 05:15:35;;;;;;;;;1.75;1.75;;;;;11.73;57.87;101112.28;5096256;27;45475;-72
2022/04/19 05:18:00;;;;;;;;;4.00;4.00;;;;;11.60;57.85;101109.25;5096927;27;45396;-75
2022/04/19 05:20:26;;;;;;;;;5.00;5.00;;;;;11.51;58.15;101106.97;5096418;27;45412;-76
2022/04/19 05:22:51;;;;;;;;;2.50;2.00;;;;;11.42;59.00;101110.06;5096951;27;45345;-76
2022/04/19 05:25:16;;;;;;;;;4.00;4.00;;;;;11.41;59.16;101111.00;5096845;27;45284;-75
2022/04/19 05:27:42;;;;;;;;;2.25;2.25;;;;;11.42;59.06;101109.19;5096492;27;45411;-78
2022/04/19 05:30:08;;;;;;;;;4.00;2.75;;;;;11.45;59.19;101107.25;5096001;27;45326;-78
2022/04/19 05:32:33;;;;;;;;;7.25;3.00;;;;;11.48;59.42;101109.81;5096279;27;45388;-74
2022/04/19 05:34:59;;;;;;;;;3.50;3.50;;;;;11.50;59.29;101096.31;5096343;27;45534;-72
2022/04/19 05:37:24;;;;;;;;;3.00;3.00;;;;;11.56;59.44;101099.63;5096016;27;46258;-69
2022/04/19 05:39:50;;;;;;;;;2.50;2.50;;;;;11.60;59.58;101076.16;5096098;27;45222;-74
2022/04/19 05:42:15;;;;;;;;;4.00;4.00;;;;;11.87;59.39;101117.06;5096050;27;45598;-70
2022/04/19 05:44:40;;;;;;;;;3.75;3.75;;;;;11.94;58.85;101118.53;5095839;27;45292;-71
2022/04/19 05:47:06;;;;;;;;;2.50;2.50;;;;;11.99;58.76;101109.28;5094972;27;45311;-71
2022/04/19 05:49:31;;;;;;;;;5.50;5.00;;;;;12.05;58.78;101117.09;5096036;27;45328;-71
2022/04/19 05:51:56;;;;;;;;;3.00;3.00;;;;;11.93;58.54;101109.59;5096064;27;45432;-70
2022/04/19 05:54:22;;;;;;;;;2.50;2.50;;;;;11.94;59.65;101116.72;5095805;27;45603;-71
2022/04/19 05:56:47;;;;;;;;;3.00;3.00;;;;;11.91;59.47;101102.56;5095557;27;46023;-71
2022/04/19 05:59:12;;;;;;;;;3.00;3.00;;;;;12.08;59.47;101114.25;5095392;27;45322;-68
2022/04/19 06:07:05;;;;;;;;;5.75;3.50;;;;;12.13;59.27;101101.50;5095725;27;45367;-70
2022/04/19 06:09:31;;;;;;;;;4.50;4.50;;;;;12.21;59.37;101117.25;5095415;27;45380;-68
2022/04/19 06:11:56;;;;;;;;;4.00;4.00;;;;;12.10;59.46;101104.31;5095135;27;46025;-67
2022/04/19 06:14:21;;;;;;;;;4.50;4.50;;;;;12.07;59.65;101115.22;5093989;27;45819;-69
2022/04/19 06:16:47;;;;;;;;;4.75;4.75;;;;;12.07;59.57;101108.97;5095410;27;46117;-71
2022/04/19 06:19:12;;;;;;;;;4.50;4.50;;;;;12.17;59.40;101114.75;5095503;27;45391;-70
2022/04/19 06:21:37;;;;;;;;;4.25;4.25;;;;;12.28;59.07;101125.91;5095646;27;45376;-69
2022/04/19 06:24:05;;;;;;;;;6.25;4.25;;;;;12.39;59.18;101121.78;5093273;27;45545;-70
2022/04/19 06:26:30;;;;;;;;;4.50;4.50;;;;;12.45;58.86;101110.72;5092081;27;46674;-70
2022/04/19 06:28:55;;;;;;;;;9.25;4.50;;;;;12.54;58.23;101122.84;5095038;27;45386;-70
2022/04/19 06:31:21;;;;;;;;;4.00;4.00;;;;;12.35;58.65;101103.16;5095112;27;45378;-67
2022/04/19 06:33:46;;;;;;;;;4.50;4.00;;;;;12.22;58.84;101110.06;5093918;27;45376;-69
2022/04/19 06:36:11;;;;;;;;;6.00;3.75;;;;;12.25;59.39;101123.38;5095308;27;45607;-70
2022/04/19 06:38:37;;;;;;;;;7.75;5.25;;;;;12.23;59.49;101117.19;5095128;27;45344;-70
2022/04/19 06:41:02;;;;;;;;;4.75;4.75;;;;;12.16;59.38;101116.63;5095535;27;45605;-70
2022/04/19 06:43:28;;;;;;;;;4.50;4.50;;;;;11.97;59.77;101100.47;5095164;27;47147;-71
2022/04/19 06:45:53;;;;;;;;;4.00;4.00;;;;;12.13;59.58;101114.94;5094886;27;45488;-71
2022/04/19 06:48:18;;;;;;;;;3.75;3.25;;;;;12.17;59.66;101121.00;5094973;27;45316;-71
2022/04/19 06:50:44;;;;;;;;;9.75;5.75;;;;;12.20;59.75;101109.25;5095315;27;45285;-69
2022/04/19 06:53:09;;;;;;;;;6.25;4.50;;;;;12.28;59.44;101105.28;5094642;27;45489;-70
2022/04/19 06:55:34;;;;;;;;;10.00;5.75;;;;;12.37;59.17;101109.34;5095090;27;46484;-69
2022/04/19 06:58:00;;;;;;;;;5.00;5.00;;;;;12.50;58.73;101116.72;5095335;27;45328;-71
2022/04/19 07:00:25;;;;;;;;;6.00;5.25;;;;;12.52;58.86;101111.28;5094934;27;45376;-70
2022/04/19 07:02:50;;;;;;;;;7.25;7.00;;;;;12.45;58.86;101107.16;5094931;27;45332;-70
2022/04/19 07:05:17;;;;;;;;;5.25;4.50;;;;;12.42;59.46;101115.34;5095142;27;45336;-69
2022/04/19 07:07:43;;;;;;;;;6.00;6.00;;;;;12.49;59.39;101108.78;5095217;27;45503;-72
2022/04/19 07:10:10;;;;;;;;;6.00;5.00;;;;;12.59;58.85;101112.72;5095361;27;45403;-70
2022/04/19 07:12:36;;;;;;;;;11.75;5.50;;;;;12.49;59.07;101100.69;5094868;27;45352;-70
2022/04/19 07:15:01;;;;;;;;;6.50;6.50;;;;;12.55;58.36;101103.09;5094628;27;46443;-70
2022/04/19 07:17:27;;;;;;;;;9.50;6.50;;;;;12.52;57.89;101079.88;5094770;27;45451;-70
2022/04/19 07:28:10;;;;;;;;;7.00;6.75;;;;;12.79;58.08;101104.56;5098265;27;45395;-70
2022/04/19 07:30:35;;;;;;;;;11.00;9.50;;;;;12.78;57.84;101096.56;5097741;27;46093;-70
2022/04/19 07:33:02;;;;;;;;;14.00;10.50;;;;;12.79;57.58;101106.38;5097426;27;45589;-69
2022/04/19 07:35:28;;;;;;;;;12.00;8.75;;;;;12.85;57.74;101108.78;5097864;27;45959;-70
2022/04/19 07:37:53;;;;;;;;;12.00;8.00;;;;;12.86;57.07;101108.69;5098100;27;45519;-70
2022/04/19 07:40:18;;;;;;;;;10.00;7.50;;;;;12.89;56.98;101102.31;5098018;27;45421;-69
2022/04/19 07:42:44;;;;;;;;;11.75;10.25;;;;;12.96;57.11;101100.16;5097942;27;45316;-70
2022/04/19 07:45:09;;;;;;;;;7.75;7.00;;;;;13.04;56.84;101108.72;5097477;27;45279;-69
2022/04/19 07:47:35;;;;;;;;;9.50;7.75;;;;;13.14;57.16;101100.16;5097804;27;45396;-69
2022/04/19 07:50:02;;;;;;;;;11.75;10.00;;;;;13.24;56.43;101105.94;5096601;27;45271;-69
2022/04/19 07:52:27;;;;;;;;;11.75;10.75;;;;;13.21;56.21;101111.47;5096565;27;46393;-70
2022/04/19 07:54:52;;;;;;;;;9.50;9.50;;;;;13.20;56.39;101105.22;5097535;27;45496;-71
2022/04/19 07:57:21;;;;;;;;;15.50;13.00;;;;;13.25;56.14;101095.09;5097845;27;45355;-69
2022/04/19 07:59:47;;;;;;;;;10.50;10.00;;;;;13.39;55.04;101097.06;5097445;27;45257;-69
2022/04/19 08:02:14;;;;;;;;;12.75;9.75;;;;;13.47;55.17;101104.75;5097969;27;45258;-70
2022/04/19 08:04:40;;;;;;;;;16.75;13.25;;;;;13.57;55.07;101096.13;5097278;27;45387;-70
2022/04/19 08:07:06;;;;;;;;;15.25;10.25;;;;;13.62;54.76;101095.84;5097796;27;45350;-71
2022/04/19 08:09:32;;;;;;;;;12.50;8.25;;;;;13.69;54.81;101089.22;5097620;27;45380;-69
2022/04/19 08:11:58;;;;;;;;;11.50;8.00;;;;;13.71;54.12;101079.22;5097484;27;45537;-69
2022/04/19 08:14:23;;;;;;;;;16.25;10.00;;;;;13.88;53.50;101092.63;5097052;27;46108;-70
2022/04/19 08:16:49;;;;;;;;;13.50;11.75;;;;;13.94;53.60;101097.72;5097352;27;45487;-69
2022/04/19 08:19:14;;;;;;;;;11.75;10.50;;;;;13.96;53.56;101086.84;5097364;27;45468;-71
2022/04/19 08:21:40;;;;;;;;;8.00;8.00;;;;;14.02;53.46;101091.91;5097336;27;45321;-69
2022/04/19 08:24:05;;;;;;;;;10.50;8.50;;;;;14.11;51.55;101093.25;5097152;27;45581;-70
2022/04/19 08:26:30;;;;;;;;;10.25;9.25;;;;;14.02;51.38;101079.31;5097381;27;45384;-70
2022/04/19 08:28:56;;;;;;;;;11.25;9.50;;;;;14.15;50.99;101101.06;5096869;27;45305;-70
2022/04/19 08:31:22;;;;;;;;;10.25;9.00;;;;;14.06;50.61;101084.50;5097120;27;45485;-70
2022/04/19 08:33:47;;;;;;;;;11.75;8.00;;;;;13.87;50.88;101068.47;5095450;27;46958;-71
2022/04/19 08:36:13;;;;;;;;;12.25;8.50;;;;;14.06;50.32;101098.00;5095598;27;45305;-68
2022/04/19 08:38:38;;;;;;;;;7.75;6.00;;;;;14.13;50.01;101086.78;5097160;27;45410;-68
2022/04/19 08:41:04;;;;;;;;;8.75;8.00;;;;;14.23;49.77;101085.31;5097132;27;45376;-70
2022/04/19 08:43:30;;;;;;;;;6.00;0.00;;;;;14.36;49.15;101080.13;5096854;27;46187;-70
2022/04/19 08:45:55;;;;;;;;;8.75;8.00;;;;;14.51;49.70;101078.41;5096659;27;45349;-69
2022/04/19 08:48:25;;;;;;;;;8.50;8.50;;;;;14.69;49.59;101090.88;5096872;27;45503;-69
2022/04/19 08:50:53;;;;;;;;;9.00;8.50;;;;;14.69;50.45;101083.63;5096934;27;45390;-70
2022/04/19 08:58:47;;;;;;;;;8.50;7.00;;;;;14.90;48.59;101069.84;5096813;27;45484;-70
2022/04/19 09:01:12;;;;;;;;;7.00;7.00;;;;;15.05;48.40;101077.94;5094789;27;46163;-70
2022/04/19 09:03:39;;;;;;;;;9.00;9.00;;;;;15.00;48.54;101061.13;5096512;27;45955;-71
2022/04/19 09:06:05;;;;;;;;;6.25;6.25;;;;;15.16;48.16;101077.28;5096703;27;45514;-70
2022/04/19 09:08:30;;;;;;;;;13.50;9.00;;;;;15.21;47.71;101069.78;5096552;27;46060;-69
2022/04/19 09:11:08;;;;;;;;;10.00;10.00;;;;;15.14;48.19;101066.56;5096359;27;45446;-70
2022/04/19 09:13:35;;;;;;;;;9.75;8.50;;;;;15.19;47.98;101069.00;5095030;27;47285;-71
2022/04/19 09:16:06;;;;;;;;;8.50;8.50;;;;;15.25;48.31;101070.44;5095893;27;45254;-69
2022/04/19 09:18:35;;;;;;;;;8.50;8.50;;;;;15.33;48.21;101065.44;5096470;27;45389;-70
2022/04/19 09:21:05;;;;;;;;;14.50;10.50;;;;;15.51;46.64;101070.63;5096310;27;45311;-69
2022/04/19 09:23:32;;;;;;;;;14.00;9.50;;;;;15.54;47.01;101064.19;5096117;27;45928;-69
2022/04/19 09:26:05;;;;;;;;;7.75;7.00;;;;;15.73;46.95;101063.94;5096309;27;45393;-70
2022/04/19 09:28:33;;;;;;;;;7.00;6.75;;;;;15.92;46.86;101069.03;5096781;27;45457;-70
2022/04/19 09:31:01;;;;;;;;;8.00;8.00;;;;;16.06;46.72;101066.34;5095602;27;45579;-69
2022/04/19 09:33:28;;;;;;;;;10.50;8.75;;;;;16.12;45.97;101061.41;5096216;27;46037;-70
2022/04/19 09:35:55;;;;;;;;;13.00;10.50;;;;;16.03;45.62;101059.28;5096239;27;45418;-71
2022/04/19 09:38:50;;;;;;;;;12.50;8.00;;;;;16.00;46.15;101059.47;5096241;27;45514;-70
2022/04/19 09:41:27;;;;;;;;;13.75;9.00;;;;;16.10;46.06;101057.94;5082634;27;45304;-70
2022/04/19 09:44:10;;;;;;;;;9.00;8.00;;;;;16.07;45.24;101054.56;5095533;27;45383;-70
2022/04/19 09:46:36;;;;;;;;;14.50;9.25;;;;;16.11;45.12;101050.69;5095403;27;45531;-70
2022/04/19 09:49:02;;;;;;;;;12.00;10.50;;;;;16.11;45.42;101065.09;5095747;27;45369;-70
2022/04/19 09:51:32;;;;;;;;;9.75;8.50;;;;;16.07;45.77;101041.91;5095928;27;45337;-70
2022/04/19 09:53:58;;;;;;;;;9.50;8.00;;;;;16.23;45.63;101055.31;5095544;27;45498;-71
2022/04/19 09:56:23;;;;;;;;;11.00;9.25;;;;;16.26;45.16;101050.56;5095910;27;45243;-71
2022/04/19 09:58:51;;;;;;;;;13.00;10.50;;;;;16.19;45.67;101046.53;5095726;27;45452;-70
2022/04/19 10:09:35;;;;;;;;;10.50;10.50;;;;;16.72;46.24;101027.78;5095573;27;45254;-72
2022/04/19 10:12:05;;;;;;;;;5.50;2.50;;;;;16.71;45.77;101010.66;5095682;27;45364;-71
2022/04/19 10:14:31;;;;;;;;;13.25;10.75;;;;;16.89;45.45;101017.53;5095074;27;46190;-70
2022/04/19 10:17:01;;;;;;;;;12.25;10.75;;;;;16.96;45.74;101015.28;5095139;27;45371;-70
2022/04/19 10:19:27;;;;;;;;;12.50;10.50;;;;;17.03;45.74;101005.75;5095360;27;45313;-71
2022/04/19 10:21:58;;;;;;;;;10.00;9.00;;;;;17.10;46.14;101015.19;5093869;27;45465;-70
2022/04/19 10:24:25;;;;;;;;;15.00;11.25;;;;;17.09;45.49;101004.50;5094969;27;45340;-70
2022/04/19 10:26:52;;;;;;;;;17.00;10.75;;;;;16.71;45.89;100963.75;5095125;27;45290;-75
2022/04/19 10:29:20;;;;;;;;;12.25;11.00;;;;;16.88;46.42;101012.22;5095464;27;45278;-70
2022/04/19 10:32:01;;;;;;;;;9.50;9.50;;;;;16.85;46.61;101007.88;5094745;27;45463;-72
2022/04/19 10:34:29;;;;;;;;;18.00;9.25;;;;;16.81;46.66;100997.38;5095248;27;46227;-76
2022/04/19 10:36:57;;;;;;;;;10.25;10.00;;;;;16.89;46.41;100998.59;5095076;27;45317;-74
2022/04/19 10:39:30;;;;;;;;;15.50;11.75;;;;;17.07;46.97;101004.59;5095282;27;45397;-75
2022/04/19 10:42:00;;;;;;;;;13.25;11.75;;;;;17.14;46.29;101002.31;5095022;27;45534;-74
2022/04/19 10:44:41;;;;;;;;;14.00;13.00;;;;;17.15;46.06;101002.22;5094794;27;46382;-74
2022/04/19 10:47:20;;;;;;;;;15.00;12.50;;;;;17.20;46.17;100997.34;5094626;27;45428;-73
2022/04/19 10:49:47;;;;;;;;;17.25;13.00;;;;;17.30;46.44;100998.44;5093759;27;45378;-73
2022/04/19 10:52:42;;;;;;;;;10.00;10.00;;;;;17.43;45.97;100987.63;5095132;27;45337;-73
2022/04/19 10:55:21;;;;;;;;;15.75;11.75;;;;;17.57;46.15;100987.50;5094491;27;46070;-73
2022/04/19 11:01:31;;;;;;;;;12.00;11.25;;;;;17.91;45.21;100987.81;5098400;27;45318;-72
2022/04/19 11:03:56;;;;;;;;;14.75;13.75;;;;;18.04;44.96;100980.50;5018694;28;45543;-73
2022/04/19 11:06:33;;;;;;;;;21.75;16.50;;;;;18.09;44.50;100986.47;5035554;28;47296;-74
2022/04/19 11:09:29;;;;;;;;;19.75;17.00;;;;;18.00;44.16;100977.16;5077606;27;45527;-73
2022/04/19 11:12:15;;;;;;;;;18.50;16.25;;;;;18.04;44.64;100978.66;5114639;27;45351;-71
2022/04/19 11:14:41;;;;;;;;;22.75;15.25;;;;;18.17;44.17;100973.22;5131211;27;47286;-71
2022/04/19 11:17:24;;;;;;;;;15.25;12.00;;;;;18.33;44.71;100976.53;5098202;27;46984;-71
2022/04/19 11:20:08;;;;;;;;;20.25;18.00;;;;;18.46;44.10;100973.75;5098244;27;45352;-71
2022/04/19 11:22:46;;;;;;;;;16.00;11.25;;;;;18.65;43.03;100967.84;5098422;27;45343;-70
2022/04/19 11:25:12;;;;;;;;;16.75;16.75;;;;;18.65;43.45;100962.41;5098122;27;45547;-72
2022/04/19 11:27:52;;;;;;;;;17.50;14.25;;;;;18.86;43.22;100977.06;5097860;27;45338;-70
2022/04/19 11:30:18;;;;;;;;;15.25;14.75;;;;;19.00;43.08;100970.56;5096221;27;45245;-71
2022/04/19 11:32:49;;;;;;;;;16.75;15.25;;;;;19.01;42.64;100956.00;5098166;27;45372;-72
2022/04/19 11:35:16;;;;;;;;;17.00;15.75;;;;;19.25;42.33;100954.94;5096385;27;45883;-71
2022/04/19 11:37:43;;;;;;;;;18.00;14.25;;;;;19.40;42.37;100963.72;5097863;27;46023;-71
2022/04/19 11:48:44;;;;;;;;;15.75;14.75;;;;;19.23;42.23;100956.91;5097507;27;45250;-71
2022/04/19 11:51:13;;;;;;;;;18.75;17.50;;;;;19.25;42.62;100968.53;5096713;27;45512;-72
2022/04/19 11:53:38;;;;;;;;;15.25;15.25;;;;;19.24;42.25;100965.94;5097709;27;45413;-70
2022/04/19 11:56:06;;;;;;;;;16.00;15.00;;;;;19.19;42.36;100957.28;5097897;27;45233;-70
2022/04/19 11:58:32;;;;;;;;;15.00;13.50;;;;;19.12;42.52;100958.75;5097311;27;45394;-72
2022/04/19 12:01:01;;;;;;;;;15.25;15.25;;;;;19.12;42.96;100964.19;5097585;27;45555;-71
2022/04/19 12:03:28;;;;;;;;;11.50;11.50;;;;;19.30;43.29;100962.75;5097665;27;45278;-71
2022/04/19 12:05:55;;;;;;;;;18.00;11.75;;;;;19.42;42.81;100958.19;5097374;27;45160;-71
2022/04/19 12:08:40;;;;;;;;;15.50;12.25;;;;;19.57;43.05;100965.16;5097504;27;45255;-70
2022/04/19 12:11:16;;;;;;;;;15.25;13.25;;;;;19.76;41.90;100959.09;5096565;27;45341;-71
2022/04/19 12:13:43;;;;;;;;;15.25;14.50;;;;;19.88;41.37;100952.69;5097607;27;45512;-71
2022/04/19 12:16:31;;;;;;;;;18.50;15.00;;;;;19.92;41.67;100954.13;5095943;27;46299;-71
2022/04/19 12:19:14;;;;;;;;;17.50;13.75;;;;;20.12;41.44;100938.91;5097239;27;45411;-72
2022/04/19 12:21:42;;;;;;;;;10.50;10.50;;;;;20.56;41.10;100962.47;5097451;27;45456;-71
2022/04/19 12:24:19;;;;;;;;;12.50;12.50;;;;;20.68;39.68;100950.53;5097083;27;45234;-70
2022/04/19 12:26:50;;;;;;;;;12.50;11.00;;;;;20.58;39.71;100950.47;5097313;27;45227;-71
2022/04/19 12:29:16;;;;;;;;;14.25;11.00;;;;;20.84;40.09;100953.66;5097129;27;45965;-72
2022/04/19 12:31:47;;;;;;;;;10.00;8.00;;;;;20.66;39.02;100922.56;5096678;27;45273;-71
2022/04/19 12:34:15;;;;;;;;;7.00;6.00;;;;;20.53;39.96;100933.63;5097395;27;45467;-71
2022/04/19 12:36:44;;;;;;;;;8.75;7.50;;;;;20.38;40.88;100948.53;5096861;27;46413;-70
2022/04/19 12:39:10;;;;;;;;;7.00;7.00;;;;;20.37;40.70;100946.81;5096796;27;47216;-71
2022/04/19 12:41:43;;;;;;;;;7.50;6.50;;;;;19.97;40.89;100943.75;5096966;27;45736;-70
2022/04/19 12:44:10;;;;;;;;;8.00;6.00;;;;;19.72;41.29;100925.84;5096998;27;45351;-70
2022/04/19 12:46:54;;;;;;;;;7.75;7.75;;;;;20.16;40.38;100934.97;5096568;27;45949;-71
2022/04/19 12:49:25;;;;;;;;;6.75;6.25;;;;;20.65;40.04;100939.91;5096927;27;45943;-72
2022/04/19 12:52:05;;;;;;;;;8.00;7.25;;;;;21.19;39.07;100914.34;5096588;27;45511;-71
2022/04/19 12:54:35;;;;;;;;;6.50;4.75;;;;;21.56;38.15;100923.75;5096615;27;45438;-71
2022/04/19 12:59:45;;;;;;;;;8.00;5.25;;;;;22.55;36.86;100909.22;5095442;27;45491;-70
2022/04/19 13:02:16;;;;;;;;;5.00;5.00;;;;;22.87;35.97;100915.31;5094941;27;45482;-71
2022/04/19 13:04:42;;;;;;;;;5.75;5.75;;;;;23.02;34.80;100897.44;5094472;27;45416;-70
2022/04/19 13:12:44;;;;;;;;;5.00;5.00;;;;;24.15;32.40;100902.78;5071889;27;45424;-72
2022/04/19 13:15:10;;;;;;;;;2.25;1.75;;;;;24.96;31.39;100909.13;5096320;27;45531;-71
2022/04/19 13:17:39;;;;;;;;;6.00;4.00;;;;;25.63;30.25;100891.91;5095954;27;45407;-71
2022/04/19 13:20:06;;;;;;;;;5.00;4.00;;;;;26.33;29.95;100895.31;5096558;27;45422;-71
2022/04/19 13:22:31;;;;;;;;;4.50;4.50;;;;;26.81;28.12;100890.88;5095002;27;45506;-71
2022/04/19 13:24:59;;;;;;;;;6.50;4.75;;;;;27.10;27.58;100899.50;5096185;27;45269;-69
2022/04/19 13:27:32;;;;;;;;;5.25;3.50;;;;;27.41;27.56;100890.50;5096346;27;45242;-70
2022/04/19 13:29:57;;;;;;;;;7.50;4.00;;;;;27.80;26.18;100896.09;5095809;27;46462;-71
2022/04/19 13:32:23;;;;;;;;;6.75;4.50;;;;;28.05;25.88;100886.69;5096262;27;45467;-72
2022/04/19 13:34:48;;;;;;;;;4.75;3.50;;;;;28.38;25.07;100883.78;5096511;27;45210;-71
2022/04/19 13:37:15;;;;;;;;;6.50;4.75;;;;;28.23;25.25;100884.56;5096078;27;45955;-70
2022/04/19 13:39:41;;;;;;;;;3.75;3.75;;;;;28.10;24.95;100881.47;5095980;27;47406;-72
2022/04/19 13:42:06;;;;;;;;;3.00;3.00;;;;;28.29;24.83;100871.94;5096075;27;45523;-70
2022/04/19 13:44:32;;;;;;;;;4.50;4.00;;;;;28.82;25.17;100871.06;5095846;27;45406;-72
2022/04/19 13:46:57;;;;;;;;;3.25;3.25;;;;;29.34;24.63;100862.78;5095454;27;45395;-71
2022/04/19 13:49:24;;;;;;;;;5.00;4.00;;;;;30.00;24.40;100865.66;5095911;27;45337;-75
2022/04/19 13:51:49;;;;;;;;;8.00;5.50;;;;;30.56;22.97;100852.03;5095926;27;45343;-71
2022/04/19 13:54:17;;;;;;;;;3.50;3.50;;;;;31.09;22.48;100847.88;5084016;27;45506;-74
2022/04/19 13:56:44;;;;;;;;;5.75;5.75;;;;;31.45;22.56;100851.34;5092235;27;46608;-73
2022/04/19 13:59:12;;;;;;;;;6.50;6.50;;;;;31.80;22.21;100843.03;5095613;27;46178;-71
2022/04/19 14:01:38;;;;;;;;;6.00;4.00;;;;;32.12;21.55;100844.22;5095491;27;45476;-71
2022/04/19 14:04:03;;;;;;;;;2.25;2.25;;;;;32.42;20.82;100837.25;5095803;27;45328;-70
2022/04/19 14:06:30;;;;;;;;;4.50;4.25;;;;;32.70;20.66;100828.81;5095703;27;45344;-72
2022/04/19 14:08:56;;;;;;;;;6.00;5.00;;;;;32.87;20.41;100832.00;5095745;27;45337;-72
2022/04/19 14:11:23;;;;;;;;;11.75;6.75;;;;;33.00;20.76;100830.09;5095648;27;45416;-73
2022/04/19 14:13:49;;;;;;;;;6.00;4.25;;;;;32.97;20.45;100835.22;5095436;27;45242;-73
2022/04/19 14:16:14;;;;;;;;;5.25;5.25;;;;;32.77;20.46;100821.31;5095529;27;45475;-72
2022/04/19 14:18:39;;;;;;;;;6.00;6.00;;;;;32.86;20.58;100825.59;5095908;27;45584;-72
2022/04/19 14:21:06;;;;;;;;;6.75;4.25;;;;;32.53;20.13;100806.13;5095617;27;45499;-73
2022/04/19 14:23:32;;;;;;;;;6.50;3.75;;;;;32.03;20.83;100814.94;5095760;27;45896;-72
2022/04/19 14:25:58;;;;;;;;;7.25;4.00;;;;;32.03;20.86;100803.84;5093755;27;45498;-73
2022/04/19 14:33:15;;;;;;;;;5.00;5.00;;;;;32.10;21.37;100807.50;5094416;27;46215;-71
2022/04/19 14:33:55;;;;;;;;;9.50;5.50;;;;;32.05;21.20;100810.06;5094653;27;45486;-72
2022/04/19 14:36:24;;;;;;;;;6.50;5.25;;;;;31.80;20.53;100796.75;5095181;27;45582;-72
2022/04/19 14:38:50;;;;;;;;;5.50;4.50;;;;;31.81;20.86;100803.16;5095040;27;46153;-73
2022/04/19 14:41:18;;;;;;;;;5.00;3.75;;;;;31.87;21.21;100808.72;5095021;27;45271;-73
2022/04/19 14:43:43;;;;;;;;;6.00;4.75;;;;;31.89;21.15;100789.97;5095156;27;45349;-72
2022/04/19 14:46:08;;;;;;;;;4.50;4.00;;;;;32.19;20.82;100800.72;5094991;27;45538;-71
2022/04/19 14:48:35;;;;;;;;;6.25;4.50;;;;;32.23;20.94;100797.34;5081358;27;46051;-72
2022/04/19 14:53:44;;;;;;;;;3.00;3.00;;;;;32.50;20.75;100792.66;5094986;27;45271;-75
2022/04/19 14:56:10;;;;;;;;;3.75;3.75;;;;;32.47;20.17;100801.44;5090194;27;47291;-73
2022/04/19 14:58:35;;;;;;;;;4.00;3.00;;;;;32.20;20.20;100802.44;5094868;27;45470;-73
2022/04/19 15:01:00;;;;;;;;;4.00;4.00;;;;;31.64;21.00;100805.44;5094737;27;45298;-75
2022/04/19 15:03:26;;;;;;;;;7.00;3.75;;;;;30.69;21.13;100802.38;5095249;27;45276;-73
2022/04/19 15:05:51;;;;;;;;;5.25;5.00;;;;;29.71;22.43;100802.94;5095038;27;45298;-74
2022/04/19 15:08:16;;;;;;;;;7.00;6.00;;;;;29.23;23.54;100796.09;5095184;27;45316;-72
2022/04/19 15:10:42;;;;;;;;;6.00;6.00;;;;;29.18;22.83;100802.19;5095361;27;45204;-73
2022/04/19 15:13:08;;;;;;;;;6.00;5.00;;;;;29.37;23.62;100794.41;5094911;27;45270;-74
2022/04/19 15:15:34;;;;;;;;;4.00;4.00;;;;;29.40;22.75;100777.47;5094558;27;45229;-73
2022/04/19 15:17:59;;;;;;;;;3.25;3.25;;;;;29.64;23.02;100786.28;5094501;27;46112;-74
2022/04/19 15:20:24;;;;;;;;;5.00;5.00;;;;;29.84;22.90;100792.06;5094665;27;45399;-74
2022/04/19 15:22:50;;;;;;;;;5.75;5.00;;;;;29.87;21.97;100796.34;5094870;27;45339;-74
2022/04/19 15:25:15;;;;;;;;;9.25;6.25;;;;;29.75;22.63;100792.38;5094247;27;45299;-71
2022/04/19 15:27:41;;;;;;;;;6.50;5.25;;;;;29.46;23.06;100777.53;5094375;27;45448;-75
2022/04/19 15:30:07;;;;;;;;;4.00;4.00;;;;;29.43;23.55;100788.13;5094271;27;45329;-74
2022/04/19 15:32:32;;;;;;;;;4.50;4.50;;;;;29.49;23.39;100782.69;5092953;27;45432;-73
2022/04/19 15:34:57;;;;;;;;;6.50;5.25;;;;;29.62;23.51;100769.03;5094430;27;45530;-75
2022/04/19 15:37:23;;;;;;;;;6.50;4.75;;;;;29.77;22.99;100768.16;5094403;27;46386;-74
2022/04/19 15:39:49;;;;;;;;;7.00;4.00;;;;;29.66;23.26;100764.84;5094388;27;45616;-74
2022/04/19 15:42:14;;;;;;;;;5.75;3.75;;;;;29.67;23.17;100763.81;5094519;27;45318;-71
2022/04/19 15:44:40;;;;;;;;;6.75;5.25;;;;;29.69;23.29;100760.81;5094370;27;45337;-71
2022/04/19 15:47:05;;;;;;;;;3.50;2.75;;;;;29.69;23.45;100764.44;5097034;27;45302;-72
2022/04/19 15:49:30;;;;;;;;;5.25;3.25;;;;;29.67;23.28;100766.56;5097869;27;45341;-70
2022/04/19 15:51:56;;;;;;;;;6.00;4.75;;;;;29.49;23.69;100762.50;5097935;27;45522;-68
2022/04/19 15:54:21;;;;;;;;;6.25;4.50;;;;;29.27;23.80;100756.00;5097594;27;45377;-70
2022/04/19 15:56:47;;;;;;;;;5.50;4.25;;;;;28.95;24.11;100777.41;5097772;27;45293;-69
2022/04/19 15:59:12;;;;;;;;;7.00;5.00;;;;;28.39;24.92;100767.75;5097941;27;45211;-72
2022/04/19 16:01:37;;;;;;;;;5.00;4.00;;;;;28.02;26.01;100771.28;5097572;27;45215;-70
2022/04/19 16:04:03;;;;;;;;;7.75;4.00;;;;;27.70;26.22;100772.34;5097615;27;45355;-70
2022/04/19 16:06:28;;;;;;;;;3.25;3.25;;;;;27.16;26.33;100770.47;5097326;27;46559;-69
2022/04/19 16:08:54;;;;;;;;;4.25;4.25;;;;;26.55;27.52;100771.94;5097588;27;45326;-69
2022/04/19 16:11:20;;;;;;;;;5.50;5.25;;;;;25.97;28.38;100760.03;5097356;27;45475;-70
2022/04/19 16:13:46;;;;;;;;;5.00;5.00;;;;;25.61;29.24;100762.16;5095780;27;45664;-70
2022/04/19 16:24:24;;;;;;;;;5.75;5.75;;;;;23.97;31.45;100770.44;5097097;27;45393;-71
2022/04/19 16:26:49;;;;;;;;;5.00;5.00;;;;;23.82;31.92;100767.34;5096926;27;46354;-69
2022/04/19 16:29:15;;;;;;;;;6.75;4.75;;;;;23.62;32.13;100750.22;5097036;27;45247;-70
2022/04/19 16:31:40;;;;;;;;;5.00;5.00;;;;;23.56;32.09;100769.13;5096917;27;45288;-70
2022/04/19 16:34:07;;;;;;;;;7.00;5.00;;;;;23.38;32.50;100760.84;5096733;27;45531;-70
2022/04/19 16:36:33;;;;;;;;;8.00;5.00;;;;;22.72;33.56;100746.38;5097270;27;45546;-70
2022/04/19 16:38:58;;;;;;;;;6.50;4.75;;;;;22.40;34.18;100768.59;5096880;27;45639;-69
2022/04/19 16:41:24;;;;;;;;;7.00;3.75;;;;;22.08;34.67;100771.66;5097532;27;45310;-68
2022/04/19 16:43:49;;;;;;;;;6.00;6.00;;;;;21.83;34.72;100773.03;5096448;27;45389;-71
2022/04/19 16:46:15;;;;;;;;;5.25;5.25;;;;;21.58;35.62;100781.75;5096767;27;46398;-74
2022/04/19 16:48:40;;;;;;;;;4.25;4.00;;;;;21.36;35.99;100767.31;5083518;27;45509;-73
2022/04/19 16:51:05;;;;;;;;;4.25;4.00;;;;;21.25;36.37;100755.69;5096892;27;45362;-73
2022/04/19 16:53:35;;;;;;;;;4.00;4.00;;;;;21.21;37.00;100755.06;5096437;27;45356;-73
2022/04/19 16:56:01;;;;;;;;;5.00;5.00;;;;;21.24;36.66;100764.84;5096326;27;45355;-73
2022/04/19 16:58:27;;;;;;;;;6.75;5.00;;;;;20.95;37.44;100764.69;5095076;27;45287;-71